Time;durP1;ratioP1;P1;durP2;ratioP2;P2;SDS_P1;SDS_P2;PMS_P1;PMS_P2;Temp;Humidity;BMP_temperature;BMP_pressure;BME280_temperature;BME280_humidity;BME280_pressure;Samples;Min_cycle;Max_cycle;Signal;HPM_P1;HPM_P2
2022/07/07 00:01:36;;;;;;;6.95;5.65;;;18.70;99.90;;;;;;5010543;28;20119;-69
2022/07/07 00:04:02;;;;;;;6.75;5.90;;;18.40;99.90;;;;;;5010571;28;20036;-69
2022/07/07 00:06:29;;;;;;;5.75;4.80;;;18.70;99.90;;;;;;5011014;28;20493;-68
2022/07/07 00:08:54;;;;;;;5.28;4.75;;;18.80;99.90;;;;;;5010856;28;20030;-68
2022/07/07 00:11:24;;;;;;;5.95;5.32;;;18.80;99.90;;;;;;5010555;28;20049;-69
2022/07/07 00:13:50;;;;;;;6.43;5.82;;;18.80;99.90;;;;;;5010715;28;20028;-69
2022/07/07 00:16:16;;;;;;;6.00;5.40;;;18.70;99.90;;;;;;5009237;28;20014;-69
2022/07/07 00:18:42;;;;;;;7.80;5.80;;;18.70;99.90;;;;;;5010362;28;20026;-68
2022/07/07 00:21:08;;;;;;;7.65;5.65;;;18.70;99.90;;;;;;5010572;28;20029;-68
2022/07/07 00:23:34;;;;;;;7.03;5.22;;;18.70;99.90;;;;;;5010541;28;20037;-69
2022/07/07 00:25:59;;;;;;;8.02;5.57;;;18.70;99.90;;;;;;5010802;28;20022;-68
2022/07/07 00:28:25;;;;;;;7.68;5.47;;;18.70;99.90;;;;;;5010818;28;20432;-68
2022/07/07 00:30:50;;;;;;;6.28;5.60;;;18.70;99.90;;;;;;5010342;28;20049;-69
2022/07/07 00:33:16;;;;;;;7.93;5.68;;;18.70;99.90;;;;;;5010451;28;20037;-69
2022/07/07 00:35:41;;;;;;;8.10;6.85;;;18.80;99.90;;;;;;5010115;28;20026;-69
2022/07/07 00:38:07;;;;;;;7.28;6.22;;;18.70;99.90;;;;;;5010219;28;20025;-69
2022/07/07 00:40:33;;;;;;;9.48;7.97;;;18.70;99.90;;;;;;5010395;28;20501;-69
2022/07/07 00:42:59;;;;;;;7.93;6.65;;;18.50;99.90;;;;;;4992422;28;20037;-69
2022/07/07 00:45:25;;;;;;;7.93;6.50;;;18.60;99.90;;;;;;5009871;28;20376;-69
2022/07/07 00:47:53;;;;;;;8.32;6.55;;;18.70;99.90;;;;;;5010065;28;20387;-69
2022/07/07 00:50:20;;;;;;;10.98;7.68;;;18.70;99.90;;;;;;5009927;28;20030;-69
2022/07/07 00:52:46;;;;;;;10.57;7.45;;;18.70;99.90;;;;;;5009871;28;20124;-69
2022/07/07 00:55:12;;;;;;;9.70;7.10;;;18.70;99.90;;;;;;5009915;28;20026;-69
2022/07/07 00:57:38;;;;;;;11.70;7.78;;;18.90;99.90;;;;;;5010349;28;20052;-69
2022/07/07 01:00:12;;;;;;;10.05;8.30;;;18.60;99.90;;;;;;5009492;28;20331;-69
2022/07/07 01:02:37;;;;;;;7.97;6.53;;;18.80;99.90;;;;;;5010145;28;20355;-69
2022/07/07 01:05:06;;;;;;;7.40;5.45;;;18.70;99.90;;;;;;5009644;28;20018;-69
2022/07/07 01:07:32;;;;;;;7.32;6.60;;;18.80;99.90;;;;;;5010068;28;20022;-69
2022/07/07 01:09:59;;;;;;;11.75;7.68;;;18.80;99.90;;;;;;5009750;28;20525;-69
2022/07/07 01:12:31;;;;;;;7.40;6.47;;;18.80;99.90;;;;;;5009664;28;20021;-69
2022/07/07 01:14:57;;;;;;;10.13;7.53;;;18.80;99.90;;;;;;5009626;28;20061;-69
2022/07/07 01:17:22;;;;;;;8.80;7.45;;;18.70;99.90;;;;;;5009469;28;20543;-69
2022/07/07 01:19:48;;;;;;;12.40;6.80;;;18.70;99.90;;;;;;5009276;28;20045;-69
2022/07/07 01:22:14;;;;;;;10.70;6.68;;;18.70;99.90;;;;;;5009420;28;20038;-69
2022/07/07 01:24:40;;;;;;;12.00;6.93;;;18.70;99.90;;;;;;5009725;28;20101;-69
2022/07/07 01:27:08;;;;;;;8.38;7.50;;;18.70;99.90;;;;;;5008562;28;20212;-69
2022/07/07 01:29:38;;;;;;;8.23;6.63;;;18.60;99.90;;;;;;5009493;28;20022;-69
2022/07/07 01:32:05;;;;;;;10.43;6.47;;;18.60;99.90;;;;;;5008998;28;20080;-69
2022/07/07 01:34:31;;;;;;;13.27;6.60;;;18.60;99.90;;;;;;5009639;28;20068;-69
2022/07/07 01:36:57;;;;;;;12.45;7.05;;;18.60;99.90;;;;;;5009290;28;20053;-69
2022/07/07 01:39:22;;;;;;;9.55;6.97;;;18.60;99.90;;;;;;5009266;28;20064;-69
2022/07/07 01:41:48;;;;;;;9.88;6.53;;;18.50;99.90;;;;;;5008789;28;20180;-69
2022/07/07 01:44:13;;;;;;;10.48;7.25;;;18.50;99.90;;;;;;5009104;28;20471;-69
2022/07/07 01:46:39;;;;;;;10.38;6.35;;;18.60;99.90;;;;;;5009114;28;20438;-69
2022/07/07 01:49:04;;;;;;;8.57;5.88;;;18.50;99.90;;;;;;5009231;28;20026;-69
2022/07/07 01:51:30;;;;;;;9.60;7.28;;;18.50;99.90;;;;;;5009632;28;20049;-69
2022/07/07 01:53:55;;;;;;;6.55;5.78;;;18.50;99.90;;;;;;5008983;28;20105;-69
2022/07/07 01:56:21;;;;;;;9.32;5.95;;;18.60;99.90;;;;;;5008591;28;20475;-69
2022/07/07 01:58:46;;;;;;;9.25;6.07;;;18.60;99.90;;;;;;5008976;28;20022;-70
2022/07/07 02:01:12;;;;;;;7.40;5.40;;;18.50;99.90;;;;;;5008747;28;20352;-69
2022/07/07 02:03:37;;;;;;;10.13;6.32;;;18.60;99.90;;;;;;5009081;28;20038;-69
2022/07/07 02:06:03;;;;;;;6.45;5.80;;;18.60;99.90;;;;;;5008776;28;20502;-69
2022/07/07 02:08:29;;;;;;;10.70;5.28;;;18.80;99.90;;;;;;4991421;28;20038;-70
2022/07/07 02:11:12;;;;;;;9.65;6.40;;;18.60;99.90;;;;;;5008577;28;20037;-69
2022/07/07 02:13:43;;;;;;;7.82;4.68;;;18.60;99.90;;;;;;5008800;28;20531;-69
2022/07/07 02:16:09;;;;;;;7.95;4.70;;;18.60;99.90;;;;;;5009075;28;20052;-69
2022/07/07 02:18:36;;;;;;;7.53;5.43;;;18.60;99.90;;;;;;5008714;28;20077;-68
2022/07/07 02:21:04;;;;;;;5.85;4.15;;;18.60;99.90;;;;;;5008652;28;20030;-69
2022/07/07 02:23:29;;;;;;;6.70;4.45;;;18.60;99.90;;;;;;5009051;28;20448;-69
2022/07/07 02:25:55;;;;;;;6.03;3.80;;;18.70;99.90;;;;;;5008340;28;20026;-69
2022/07/07 02:28:22;;;;;;;3.60;2.70;;;18.60;99.90;;;;;;5008521;28;20032;-69
2022/07/07 02:30:48;;;;;;;5.07;3.10;;;18.70;99.90;;;;;;5008877;28;20289;-70
2022/07/07 02:33:13;;;;;;;5.03;2.40;;;18.60;99.90;;;;;;5008659;28;20048;-71
2022/07/07 02:35:39;;;;;;;2.40;1.60;;;18.40;99.90;;;;;;5008669;28;20026;-71
2022/07/07 02:38:04;;;;;;;4.55;1.45;;;18.20;99.90;;;;;;5008566;28;20042;-70
2022/07/07 02:40:30;;;;;;;2.58;1.27;;;18.80;99.90;;;;;;5012054;28;20430;-70
2022/07/07 02:42:56;;;;;;;2.45;1.65;;;17.40;99.90;;;;;;5012288;28;20034;-71
2022/07/07 02:45:21;;;;;;;1.85;1.65;;;17.20;99.90;;;;;;5012256;28;20022;-69
2022/07/07 02:47:46;;;;;;;3.50;1.92;;;17.10;99.90;;;;;;5012459;28;20671;-70
2022/07/07 02:50:12;;;;;;;2.17;1.67;;;16.90;99.90;;;;;;5012375;28;20037;-69
2022/07/07 02:52:38;;;;;;;2.40;1.50;;;16.90;99.90;;;;;;5012210;28;20097;-69
2022/07/07 02:55:03;;;;;;;2.38;1.60;;;16.80;99.90;;;;;;5011791;28;20022;-69
2022/07/07 02:57:29;;;;;;;2.80;1.38;;;16.70;99.90;;;;;;5012298;28;20030;-70
2022/07/07 02:59:54;;;;;;;3.15;1.40;;;16.70;99.90;;;;;;5012078;28;20026;-69
2022/07/07 03:02:20;;;;;;;2.42;1.60;;;16.90;99.90;;;;;;5012059;28;20033;-69
2022/07/07 03:04:45;;;;;;;2.67;1.45;;;16.70;99.90;;;;;;5011891;28;20050;-69
2022/07/07 03:07:11;;;;;;;3.92;1.90;;;16.60;99.90;;;;;;5012123;28;20030;-69
2022/07/07 03:09:36;;;;;;;1.55;1.45;;;16.70;99.90;;;;;;5011634;28;20026;-69
2022/07/07 03:12:02;;;;;;;2.58;2.15;;;16.60;99.90;;;;;;5011577;28;20021;-69
2022/07/07 03:14:27;;;;;;;4.43;2.25;;;16.70;99.90;;;;;;5012233;28;20026;-70
2022/07/07 03:16:53;;;;;;;3.10;2.00;;;16.70;99.90;;;;;;5011878;28;20394;-69
2022/07/07 03:19:18;;;;;;;2.55;2.28;;;16.70;99.90;;;;;;5011722;28;20113;-69
2022/07/07 03:21:44;;;;;;;5.45;2.08;;;16.60;99.90;;;;;;5011633;28;20069;-69
2022/07/07 03:24:09;;;;;;;4.45;2.42;;;16.60;99.90;;;;;;5011114;28;20036;-70
2022/07/07 03:26:35;;;;;;;3.35;2.03;;;16.70;99.90;;;;;;5011755;28;20472;-70
2022/07/07 03:29:00;;;;;;;4.32;1.80;;;16.80;99.90;;;;;;5011773;28;20376;-69
2022/07/07 03:31:26;;;;;;;3.30;2.22;;;16.70;99.90;;;;;;5011838;28;20024;-69
2022/07/07 03:33:51;;;;;;;5.85;2.63;;;16.50;99.90;;;;;;5011401;28;20069;-69
2022/07/07 03:36:17;;;;;;;3.33;2.58;;;16.50;99.90;;;;;;5011539;28;20408;-69
2022/07/07 03:38:42;;;;;;;2.88;2.65;;;16.60;99.90;;;;;;5010983;28;20018;-69
2022/07/07 03:41:08;;;;;;;6.82;3.40;;;16.70;99.90;;;;;;5011250;28;20490;-70
2022/07/07 03:43:33;;;;;;;7.40;3.60;;;17.00;99.90;;;;;;5011216;28;20025;-69
2022/07/07 03:45:59;;;;;;;7.28;2.90;;;16.80;99.90;;;;;;5011082;28;20030;-69
2022/07/07 03:48:25;;;;;;;5.55;3.47;;;16.90;99.90;;;;;;5011630;28;20383;-70
2022/07/07 03:50:50;;;;;;;4.85;2.78;;;16.80;99.90;;;;;;5011033;28;20026;-69
2022/07/07 03:53:16;;;;;;;2.92;2.20;;;16.70;99.90;;;;;;5010643;28;20105;-69
2022/07/07 03:55:41;;;;;;;3.28;2.97;;;16.70;99.90;;;;;;5011101;28;20018;-69
2022/07/07 03:58:07;;;;;;;6.70;3.40;;;16.80;99.90;;;;;;5010925;28;20018;-69
2022/07/07 04:00:32;;;;;;;3.25;2.95;;;16.60;99.90;;;;;;5011581;28;20030;-69
2022/07/07 04:02:58;;;;;;;4.53;3.00;;;16.60;99.90;;;;;;5010747;28;20038;-69
2022/07/07 04:05:23;;;;;;;5.05;2.88;;;16.70;99.90;;;;;;5011111;28;20412;-69
2022/07/07 04:07:49;;;;;;;4.53;3.22;;;16.90;99.90;;;;;;5010450;28;20533;-69
2022/07/07 04:10:15;;;;;;;4.22;3.63;;;17.00;99.90;;;;;;4992869;28;20029;-69
2022/07/07 04:12:40;;;;;;;5.82;2.92;;;16.70;99.90;;;;;;5010887;28;20018;-69
2022/07/07 04:15:06;;;;;;;3.90;3.45;;;17.00;99.90;;;;;;5010442;28;20041;-69
2022/07/07 04:17:32;;;;;;;5.03;3.97;;;16.80;99.90;;;;;;5011201;28;20034;-69
2022/07/07 04:19:58;;;;;;;6.10;3.47;;;17.00;99.90;;;;;;5010700;28;20107;-69
2022/07/07 04:22:24;;;;;;;5.88;4.13;;;16.90;99.90;;;;;;5010341;28;20030;-69
2022/07/07 04:24:50;;;;;;;5.53;3.58;;;16.90;99.90;;;;;;5010502;28;20467;-69
2022/07/07 04:27:15;;;;;;;5.70;3.20;;;17.10;99.90;;;;;;5010345;28;20025;-70
2022/07/07 04:29:43;;;;;;;7.20;3.35;;;16.90;99.90;;;;;;5010647;28;20022;-70
2022/07/07 04:32:09;;;;;;;3.20;2.67;;;17.10;99.90;;;;;;5010329;28;20026;-69
2022/07/07 04:34:34;;;;;;;5.45;2.65;;;16.90;99.90;;;;;;5010640;28;20052;-69
2022/07/07 04:37:00;;;;;;;3.53;2.15;;;16.80;99.90;;;;;;5009714;28;20120;-69
2022/07/07 04:39:25;;;;;;;4.20;2.58;;;17.00;99.90;;;;;;5010572;28;20051;-69
2022/07/07 04:41:51;;;;;;;6.57;2.60;;;16.90;99.90;;;;;;5010151;28;20092;-70
2022/07/07 04:44:16;;;;;;;3.72;1.80;;;17.10;99.90;;;;;;5010243;28;20033;-70
2022/07/07 04:46:42;;;;;;;4.53;2.60;;;17.50;99.90;;;;;;5010258;28;20201;-70
2022/07/07 04:49:07;;;;;;;3.28;1.60;;;18.10;99.90;;;;;;5010057;28;20501;-70
2022/07/07 04:51:33;;;;;;;2.45;1.98;;;17.10;99.90;;;;;;5009920;28;20101;-70
2022/07/07 04:53:58;;;;;;;4.30;1.80;;;16.70;99.90;;;;;;5009924;28;20041;-70
2022/07/07 04:56:24;;;;;;;3.95;2.05;;;17.00;99.90;;;;;;5010142;28;20375;-70
2022/07/07 04:58:50;;;;;;;3.17;1.63;;;17.20;99.90;;;;;;5010088;28;20470;-69
2022/07/07 05:01:15;;;;;;;2.05;1.42;;;17.30;99.90;;;;;;5009244;28;20451;-70
2022/07/07 05:03:41;;;;;;;4.88;1.70;;;17.20;99.90;;;;;;5010007;28;20033;-70
2022/07/07 05:06:06;;;;;;;6.22;1.90;;;17.20;99.90;;;;;;5009454;28;20328;-70
2022/07/07 05:08:32;;;;;;;2.45;1.30;;;17.20;99.90;;;;;;5009870;28;20030;-70
2022/07/07 05:10:57;;;;;;;3.78;1.45;;;17.20;99.90;;;;;;5009713;28;20034;-70
2022/07/07 05:13:23;;;;;;;5.10;1.40;;;17.20;99.90;;;;;;5009607;28;20026;-70
2022/07/07 05:15:48;;;;;;;2.00;1.13;;;17.20;99.90;;;;;;5009746;28;20056;-70
2022/07/07 05:18:17;;;;;;;5.15;1.88;;;18.60;99.90;;;;;;4991752;28;20399;-70
2022/07/07 05:20:42;;;;;;;1.88;0.90;;;17.20;99.90;;;;;;5009045;28;20559;-70
2022/07/07 05:23:09;;;;;;;2.47;1.17;;;16.80;99.90;;;;;;5009091;28;20108;-70
2022/07/07 05:25:34;;;;;;;4.20;1.13;;;16.90;99.90;;;;;;5009633;28;20032;-70
2022/07/07 05:28:00;;;;;;;2.65;0.80;;;16.50;99.90;;;;;;5008850;28;20390;-71
2022/07/07 05:30:25;;;;;;;6.72;0.90;;;16.50;99.90;;;;;;5008366;28;20030;-70
2022/07/07 05:32:51;;;;;;;5.82;0.98;;;16.60;99.90;;;;;;5008347;28;20037;-70
2022/07/07 05:35:16;;;;;;;4.22;1.38;;;16.40;99.90;;;;;;5008344;28;20028;-70
2022/07/07 05:37:42;;;;;;;5.95;0.90;;;16.70;99.90;;;;;;5008852;28;20026;-70
2022/07/07 05:40:08;;;;;;;6.45;1.05;;;16.70;99.90;;;;;;5008551;28;20443;-70
2022/07/07 05:42:34;;;;;;;6.63;1.17;;;16.60;99.90;;;;;;5008990;28;20100;-70
2022/07/07 05:44:59;;;;;;;6.80;1.05;;;16.60;99.90;;;;;;5004487;28;20029;-71
2022/07/07 05:47:25;;;;;;;5.68;1.05;;;16.90;99.90;;;;;;5006015;28;20025;-70
2022/07/07 05:49:50;;;;;;;6.38;0.65;;;16.70;99.90;;;;;;5012528;28;20053;-70
2022/07/07 05:52:16;;;;;;;5.03;1.05;;;16.90;99.90;;;;;;5008935;28;20053;-71
2022/07/07 05:54:41;;;;;;;5.97;1.10;;;16.80;99.90;;;;;;5008601;28;20025;-71
2022/07/07 05:57:07;;;;;;;4.75;1.00;;;17.00;99.90;;;;;;5008986;28;20030;-70
2022/07/07 05:59:33;;;;;;;10.90;1.02;;;17.10;99.90;;;;;;5008971;28;20032;-71
2022/07/07 06:01:59;;;;;;;5.13;0.85;;;17.20;99.90;;;;;;5008756;28;20026;-71
2022/07/07 06:04:26;;;;;;;9.88;1.40;;;17.20;99.90;;;;;;5008609;28;20030;-71
2022/07/07 06:06:52;;;;;;;7.13;1.05;;;17.20;99.90;;;;;;5007472;28;20018;-71
2022/07/07 06:09:18;;;;;;;5.65;1.58;;;17.50;99.90;;;;;;5008665;28;20045;-70
2022/07/07 06:11:44;;;;;;;4.95;0.70;;;17.60;99.90;;;;;;5006784;28;20053;-71
2022/07/07 06:14:09;;;;;;;6.50;0.98;;;17.50;99.90;;;;;;5009012;28;20060;-70
2022/07/07 06:16:41;;;;;;;7.15;1.58;;;17.60;99.90;;;;;;5011107;28;20101;-70
2022/07/07 06:19:11;;;;;;;10.85;2.28;;;18.80;99.90;;;;;;5011761;28;20045;-70
2022/07/07 06:21:37;;;;;;;5.95;1.08;;;17.50;99.90;;;;;;5012125;28;20387;-71
2022/07/07 06:24:04;;;;;;;5.28;1.48;;;17.20;99.90;;;;;;4994630;28;20060;-70
2022/07/07 06:26:30;;;;;;;6.72;0.95;;;;;;;;;;5017862;28;20029;-71
2022/07/07 06:28:55;;;;;;;4.13;1.17;;;16.90;99.90;;;;;;5012727;28;20079;-71
2022/07/07 06:31:21;;;;;;;4.22;0.70;;;16.90;99.90;;;;;;5012372;28;20069;-71
2022/07/07 06:33:47;;;;;;;4.78;1.00;;;16.40;99.90;;;;;;5012046;28;20125;-71
2022/07/07 06:36:12;;;;;;;6.30;1.45;;;16.80;99.90;;;;;;5012466;28;20382;-71
2022/07/07 06:38:38;;;;;;;4.55;1.45;;;16.60;99.90;;;;;;5012652;28;20030;-71
2022/07/07 06:41:03;;;;;;;6.88;2.20;;;16.40;99.90;;;;;;4994605;28;20034;-70
2022/07/07 06:43:29;;;;;;;6.20;1.58;;;16.80;99.90;;;;;;4995017;28;20049;-71
2022/07/07 06:45:55;;;;;;;5.32;0.98;;;16.80;99.90;;;;;;5012026;28;20801;-74
2022/07/07 06:48:20;;;;;;;4.88;1.00;;;16.70;99.90;;;;;;5012411;28;20064;-74
2022/07/07 06:50:46;;;;;;;5.50;0.85;;;17.10;99.90;;;;;;4994529;28;20032;-73
2022/07/07 06:53:12;;;;;;;6.18;1.13;;;17.10;99.90;;;;;;5012154;28;20467;-74
2022/07/07 06:55:37;;;;;;;2.95;1.13;;;17.20;99.90;;;;;;5012463;28;20174;-74
2022/07/07 06:58:03;;;;;;;6.50;1.30;;;17.20;99.90;;;;;;4994360;28;20032;-74
2022/07/07 07:00:30;;;;;;;3.88;0.90;;;17.30;99.90;;;;;;5011970;28;20072;-74
2022/07/07 07:02:56;;;;;;;7.80;1.23;;;17.40;99.90;;;;;;5011821;28;20034;-74
2022/07/07 07:05:21;;;;;;;7.68;1.38;;;17.70;99.90;;;;;;5012015;28;20029;-74
2022/07/07 07:07:47;;;;;;;4.80;1.05;;;17.80;99.90;;;;;;5012077;28;20057;-74
2022/07/07 07:10:12;;;;;;;2.47;0.70;;;17.60;99.90;;;;;;5011968;28;20014;-74
2022/07/07 07:12:38;;;;;;;9.25;1.63;;;17.50;99.90;;;;;;5012016;28;20681;-74
2022/07/07 07:15:05;;;;;;;5.40;1.35;;;17.70;99.90;;;;;;5011077;28;20026;-74
2022/07/07 07:17:31;;;;;;;5.13;0.90;;;17.90;99.90;;;;;;5011987;28;20038;-74
2022/07/07 07:19:57;;;;;;;6.82;1.02;;;17.80;99.90;;;;;;5011541;28;20054;-74
2022/07/07 07:22:23;;;;;;;4.63;0.73;;;17.90;99.90;;;;;;5011705;28;20041;-74
2022/07/07 07:24:49;;;;;;;4.38;0.80;;;;;;;;;;5011097;28;20542;-74
2022/07/07 07:27:15;;;;;;;3.08;0.85;;;17.20;99.90;;;;;;5011518;28;20114;-74
2022/07/07 07:29:40;;;;;;;3.80;0.98;;;17.10;99.90;;;;;;5011160;28;20439;-74
2022/07/07 07:32:06;;;;;;;7.30;0.73;;;17.10;99.90;;;;;;5011412;28;20018;-74
2022/07/07 07:34:32;;;;;;;2.97;0.50;;;17.20;99.90;;;;;;4993790;28;20453;-74
2022/07/07 07:36:57;;;;;;;4.60;0.73;;;17.10;99.90;;;;;;5011449;28;20165;-74
2022/07/07 07:39:23;;;;;;;1.75;0.60;;;16.90;99.90;;;;;;5011358;28;20372;-74
2022/07/07 07:41:49;;;;;;;2.03;0.50;;;17.20;99.90;;;;;;5011076;28;20029;-74
2022/07/07 07:45:09;;;;;;;1.98;0.60;;;17.20;99.90;;;;;;5010696;28;20046;-74
2022/07/07 07:47:04;;;;;;;6.03;0.57;;;17.20;99.90;;;;;;5010808;28;20412;-74
2022/07/07 07:49:30;;;;;;;2.85;0.52;;;17.40;99.90;;;;;;5011373;28;20030;-74
2022/07/07 07:51:55;;;;;;;1.73;0.50;;;17.40;99.90;;;;;;5011047;28;20026;-74
2022/07/07 07:54:20;;;;;;;4.38;1.20;;;17.60;99.90;;;;;;5011023;28;20446;-74
2022/07/07 07:56:47;;;;;;;4.90;0.70;;;17.70;99.90;;;;;;5011105;28;20121;-74
2022/07/07 07:59:13;;;;;;;7.68;1.33;;;17.90;99.90;;;;;;5010490;28;20080;-74
2022/07/07 08:01:39;;;;;;;5.60;0.82;;;17.80;99.90;;;;;;5010727;28;20026;-74
2022/07/07 08:04:05;;;;;;;4.07;0.93;;;17.90;99.90;;;;;;4993088;28;20037;-75
2022/07/07 08:06:31;;;;;;;7.55;1.60;;;17.90;99.90;;;;;;4993216;28;20018;-75
2022/07/07 08:08:56;;;;;;;2.42;0.90;;;17.60;99.90;;;;;;5010977;28;20074;-74
2022/07/07 08:11:22;;;;;;;8.73;1.08;;;17.90;99.90;;;;;;5010576;28;20049;-75
2022/07/07 08:13:47;;;;;;;3.33;0.70;;;18.60;99.90;;;;;;5010180;28;20034;-74
2022/07/07 08:16:13;;;;;;;6.18;1.02;;;18.10;99.90;;;;;;5008792;28;20030;-74
2022/07/07 08:18:39;;;;;;;3.95;0.73;;;18.20;99.90;;;;;;5010386;28;20061;-73
2022/07/07 08:21:04;;;;;;;5.53;0.82;;;18.30;99.90;;;;;;5010407;28;20484;-75
2022/07/07 08:23:30;;;;;;;4.85;0.80;;;18.40;99.90;;;;;;5010448;28;20471;-74
2022/07/07 08:25:56;;;;;;;4.28;0.88;;;18.40;99.90;;;;;;5010472;28;20817;-74
2022/07/07 08:28:21;;;;;;;6.75;0.85;;;18.40;99.90;;;;;;5010023;28;20076;-74
2022/07/07 08:30:47;;;;;;;2.90;1.30;;;18.60;99.90;;;;;;5010278;28;20018;-77
2022/07/07 08:33:12;;;;;;;3.67;0.73;;;18.70;99.90;;;;;;5010178;28;20038;-73
2022/07/07 08:35:38;;;;;;;4.20;0.82;;;18.80;99.90;;;;;;5009964;28;20096;-74
2022/07/07 08:38:04;;;;;;;3.15;1.30;;;18.90;99.90;;;;;;5009430;28;20421;-73
2022/07/07 08:40:29;;;;;;;3.42;0.57;;;18.60;99.90;;;;;;5010309;28;20030;-74
2022/07/07 08:42:55;;;;;;;2.92;0.40;;;18.40;99.90;;;;;;5009636;28;20034;-74
2022/07/07 08:45:21;;;;;;;2.00;0.40;;;18.10;99.90;;;;;;5009899;28;20113;-74
2022/07/07 08:47:46;;;;;;;4.38;1.17;;;17.80;99.90;;;;;;5009915;28;20037;-74
2022/07/07 08:50:12;;;;;;;5.07;0.63;;;17.50;99.90;;;;;;5010067;28;20119;-74
2022/07/07 08:52:38;;;;;;;3.88;0.30;;;17.40;99.90;;;;;;5009725;28;21294;-74
2022/07/07 08:55:06;;;;;;;2.92;0.52;;;14.90;99.90;;;;;;5010282;28;20687;-74
2022/07/07 08:57:32;;;;;;;1.98;0.28;;;17.50;99.90;;;;;;5009817;28;20033;-74
2022/07/07 08:59:57;;;;;;;1.80;0.25;;;17.50;99.90;;;;;;5009623;28;20109;-74
2022/07/07 09:02:24;;;;;;;0.85;0.30;;;17.70;99.90;;;;;;5009684;28;20026;-73
2022/07/07 09:04:53;;;;;;;2.47;0.30;;;18.00;99.90;;;;;;5009533;28;20022;-74
2022/07/07 09:07:19;;;;;;;1.85;0.40;;;18.40;99.90;;;;;;5009675;28;20025;-74
2022/07/07 09:09:49;;;;;;;1.75;0.57;;;18.50;99.90;;;;;;5009543;28;20034;-74
2022/07/07 09:12:18;;;;;;;1.35;0.35;;;18.70;99.90;;;;;;5009117;28;20064;-74
2022/07/07 09:14:52;;;;;;;3.03;0.30;;;18.70;99.90;;;;;;5009746;28;20034;-74
2022/07/07 09:17:32;;;;;;;2.47;0.50;;;18.60;99.90;;;;;;5009470;28;20188;-74
2022/07/07 09:20:11;;;;;;;1.73;0.30;;;18.60;99.90;;;;;;5009193;28;20096;-74
2022/07/07 09:22:49;;;;;;;3.35;0.40;;;18.70;99.90;;;;;;5009213;28;20062;-74
2022/07/07 09:25:19;;;;;;;2.80;0.50;;;18.70;99.90;;;;;;5009374;28;20048;-74
2022/07/07 09:27:55;;;;;;;2.22;0.40;;;18.70;99.90;;;;;;5008958;28;20061;-74
2022/07/07 09:30:36;;;;;;;1.42;0.40;;;18.80;99.90;;;;;;5009118;28;20030;-74
2022/07/07 09:33:10;;;;;;;2.05;0.32;;;19.00;99.90;;;;;;5008876;28;20040;-74
2022/07/07 09:38:23;;;;;;;1.27;0.30;;;19.20;99.90;;;;;;5009190;28;20048;-74
2022/07/07 09:41:02;;;;;;;0.70;0.20;;;19.20;99.90;;;;;;5008577;28;20022;-74
2022/07/07 09:43:33;;;;;;;0.80;0.30;;;19.10;99.90;;;;;;5008981;28;20034;-74
2022/07/07 09:46:11;;;;;;;1.63;0.40;;;19.10;99.90;;;;;;5009379;28;20018;-74
2022/07/07 09:48:39;;;;;;;2.80;0.32;;;19.20;99.90;;;;;;5009000;28;20044;-74
2022/07/07 09:51:22;;;;;;;1.17;0.50;;;19.20;99.90;;;;;;5008887;28;20018;-73
2022/07/07 09:54:08;;;;;;;2.47;0.40;;;18.90;99.90;;;;;;5008628;28;20111;-74
2022/07/07 09:56:45;;;;;;;1.77;0.20;;;18.80;99.90;;;;;;5008477;28;20022;-74
2022/07/07 09:59:16;;;;;;;1.33;0.40;;;20.30;99.90;;;;;;5005802;28;20022;-73
2022/07/07 10:01:45;;;;;;;3.40;0.47;;;18.80;99.90;;;;;;5005206;28;21417;-73
2022/07/07 10:04:19;;;;;;;2.90;0.50;;;18.90;99.90;;;;;;5004816;28;20085;-73
2022/07/07 10:06:45;;;;;;;3.15;0.47;;;19.10;99.90;;;;;;5004970;28;20613;-73
2022/07/07 10:09:21;;;;;;;5.05;0.52;;;19.20;99.90;;;;;;5004470;28;20032;-72
2022/07/07 10:11:55;;;;;;;1.48;0.40;;;19.40;99.90;;;;;;5005013;28;20379;-72
2022/07/07 10:14:23;;;;;;;2.40;0.65;;;19.50;99.90;;;;;;5005090;28;20026;-73
2022/07/07 10:16:51;;;;;;;3.33;0.98;;;19.50;99.90;;;;;;5003838;28;20070;-73
2022/07/07 10:19:19;;;;;;;1.38;0.38;;;19.60;99.90;;;;;;5003710;28;20046;-73
2022/07/07 10:21:47;;;;;;;2.50;0.50;;;19.70;99.90;;;;;;5003485;28;20030;-72
2022/07/07 10:24:15;;;;;;;2.55;0.50;;;19.80;99.90;;;;;;5003068;28;20030;-72
2022/07/07 10:26:50;;;;;;;3.60;0.40;;;21.20;99.90;;;;;;5003432;28;20029;-74
2022/07/07 10:29:16;;;;;;;3.15;0.90;;;19.80;99.30;;;;;;5003521;28;20699;-72
2022/07/07 10:31:50;;;;;;;4.88;0.47;;;19.70;99.90;;;;;;5003603;28;20101;-73
2022/07/07 10:34:15;;;;;;;;;;;19.60;99.90;;;;;;5004072;28;20383;-72
2022/07/07 10:36:50;;;;;;;1.85;0.40;;;19.50;99.90;;;;;;5003811;28;19905;-72
2022/07/07 10:39:23;;;;;;;2.65;0.43;;;19.30;99.90;;;;;;4985357;28;20098;-73
2022/07/07 10:42:16;;;;;;;2.40;0.40;;;19.00;99.90;;;;;;5005993;28;20487;-73
2022/07/07 10:44:50;;;;;;;2.63;0.45;;;18.80;99.90;;;;;;5007154;28;20085;-73
2022/07/07 10:47:22;;;;;;;1.48;0.60;;;18.70;99.90;;;;;;5007174;28;20388;-73
2022/07/07 10:49:52;;;;;;;1.90;1.05;;;18.60;99.90;;;;;;5007115;28;20111;-73
2022/07/07 10:52:26;;;;;;;2.38;0.73;;;18.80;99.90;;;;;;5006957;28;20025;-73
2022/07/07 10:55:02;;;;;;;1.38;0.45;;;19.00;99.90;;;;;;5006880;28;20382;-74
2022/07/07 10:57:46;;;;;;;1.40;0.45;;;19.20;99.90;;;;;;5007370;28;20025;-74
2022/07/07 11:00:26;;;;;;;1.48;0.60;;;19.40;99.90;;;;;;5008477;28;20690;-74
2022/07/07 11:02:53;;;;;;;2.25;0.32;;;19.50;99.90;;;;;;5010788;28;20031;-74
2022/07/07 11:05:18;;;;;;;3.00;0.52;;;19.60;99.90;;;;;;5011332;28;20017;-74
2022/07/07 11:08:08;;;;;;;2.45;0.63;;;19.90;99.90;;;;;;5011251;28;20190;-75
2022/07/07 11:10:36;;;;;;;3.03;0.50;;;20.10;99.90;;;;;;5011853;28;20053;-74
2022/07/07 11:13:28;;;;;;;0.80;0.38;;;20.40;99.90;;;;;;5011534;28;20034;-73
2022/07/07 11:16:06;;;;;;;3.38;0.82;;;20.40;99.20;;;;;;5011716;28;20061;-74
2022/07/07 11:18:34;;;;;;;0.90;0.60;;;20.10;99.90;;;;;;5011638;28;20026;-74
2022/07/07 11:21:03;;;;;;;2.00;0.60;;;19.70;99.90;;;;;;5011872;28;20402;-75
2022/07/07 11:23:49;;;;;;;2.47;0.85;;;19.30;99.90;;;;;;5011415;28;20045;-75
2022/07/07 11:26:20;;;;;;;2.15;0.80;;;19.10;99.90;;;;;;5011543;28;20482;-75
2022/07/07 11:28:46;;;;;;;4.18;1.30;;;19.10;99.90;;;;;;5011515;28;20029;-75
2022/07/07 11:31:13;;;;;;;2.75;1.00;;;19.30;99.90;;;;;;4993749;28;20013;-74
2022/07/07 11:33:39;;;;;;;2.40;0.80;;;19.40;99.90;;;;;;5011694;28;20021;-75
2022/07/07 11:36:19;;;;;;;4.00;1.23;;;19.70;99.90;;;;;;5011138;28;20422;-75
2022/07/07 11:38:46;;;;;;;4.43;1.63;;;19.80;99.90;;;;;;5011437;28;20026;-74
2022/07/07 11:41:12;;;;;;;2.85;0.70;;;19.70;99.90;;;;;;5011199;28;20025;-74
2022/07/07 11:43:38;;;;;;;2.33;0.88;;;19.60;99.90;;;;;;5011462;28;20030;-74
2022/07/07 11:46:04;;;;;;;1.55;0.70;;;19.40;99.90;;;;;;5011045;28;20033;-74
2022/07/07 11:48:35;;;;;;;2.75;0.80;;;19.20;99.90;;;;;;5011247;28;20476;-74
2022/07/07 11:51:01;;;;;;;2.03;0.70;;;19.20;99.90;;;;;;5010571;28;20099;-74
2022/07/07 11:53:27;;;;;;;3.22;0.80;;;20.40;99.90;;;;;;5011390;28;20475;-75
2022/07/07 11:55:52;;;;;;;3.33;0.80;;;19.20;99.90;;;;;;5011025;28;20014;-75
2022/07/07 11:58:18;;;;;;;2.80;0.68;;;19.40;99.90;;;;;;5010901;28;20033;-74
2022/07/07 12:00:43;;;;;;;2.90;0.63;;;19.40;99.90;;;;;;4993583;28;20064;-74
2022/07/07 12:03:10;;;;;;;2.17;0.90;;;19.40;99.90;;;;;;5010528;28;20397;-75
2022/07/07 12:05:45;;;;;;;3.60;1.20;;;19.60;99.90;;;;;;5010602;28;20360;-73
2022/07/07 12:08:12;;;;;;;2.22;0.70;;;19.60;99.90;;;;;;5010746;28;20017;-74
2022/07/07 12:10:48;;;;;;;2.25;0.80;;;19.80;99.90;;;;;;5010753;28;20710;-74
2022/07/07 12:13:14;;;;;;;1.90;0.65;;;19.80;99.90;;;;;;5010563;28;20030;-75
2022/07/07 12:15:39;;;;;;;2.13;0.80;;;20.30;99.90;;;;;;4993015;28;20062;-73
2022/07/07 12:18:08;;;;;;;2.35;0.60;;;19.40;99.90;;;;;;5010376;28;20115;-74
2022/07/07 12:20:34;;;;;;;2.33;0.80;;;19.50;99.90;;;;;;5010394;28;20499;-74
2022/07/07 12:23:01;;;;;;;2.53;0.77;;;19.20;99.90;;;;;;5010306;28;20038;-74
2022/07/07 12:25:29;;;;;;;2.45;0.98;;;19.20;99.90;;;;;;5011004;28;20018;-74
2022/07/07 12:28:03;;;;;;;7.63;2.05;;;18.90;99.90;;;;;;5010561;28;20038;-74
2022/07/07 12:30:32;;;;;;;9.05;1.70;;;19.10;99.90;;;;;;5010718;28;20443;-74
2022/07/07 12:32:58;;;;;;;8.00;2.00;;;19.10;99.90;;;;;;5010594;28;20022;-74
2022/07/07 12:35:34;;;;;;;14.07;2.70;;;19.10;99.90;;;;;;5010063;28;20482;-74
2022/07/07 12:38:02;;;;;;;10.18;2.00;;;19.30;99.90;;;;;;5010273;28;20125;-74
2022/07/07 12:40:29;;;;;;;6.75;2.25;;;19.30;99.90;;;;;;5010506;28;20048;-74
2022/07/07 12:42:56;;;;;;;8.00;2.53;;;19.30;99.90;;;;;;5010027;28;20038;-74
2022/07/07 12:45:23;;;;;;;5.65;1.42;;;19.30;99.90;;;;;;5010214;28;20447;-74
2022/07/07 12:47:53;;;;;;;9.10;1.67;;;19.30;99.80;;;;;;5010284;28;20137;-74
2022/07/07 12:50:21;;;;;;;6.55;1.63;;;19.40;99.80;;;;;;5009599;28;20029;-74
2022/07/07 12:53:05;;;;;;;5.05;1.10;;;19.50;99.50;;;;;;5010089;28;20466;-74